Station Historical Data
Daily Summary for August 7, 2017 Units:  English    Metric   Both
« Previous Day
Next Day »
Daily Weekly Monthly Yearly Custom
  High: Low: Average:
Temperature: 76.7 °F 59.0 °F 66.1 °F
Dew Point: 64.6 °F 55.6 °F 59.6 °F
Humidity: 89% 56% 80%
Wind Speed: 9.0mph 0.0mph 0.9mph
Wind Gust: 13.0mph - -
Wind- - South
Pressure: 30.04 in 29.92 in -
Precipitation: 0.00 in    
Historical Graphs
 
 
Tabular Data for August 7, 2017
Time Temperature Dew Point Pressure Wind Wind Speed Wind Gust Humidity Rainfall Rate (Hourly)
00:04 67.1 °F 60.7 °F 30.04 in Calm     80% 0.00 in
00:09 66.7 °F 60.3 °F 30.04 in Calm   2.0 mph 80% 0.00 in
00:14 66.2 °F 60.2 °F 30.04 in Calm   2.0 mph 81% 0.00 in
00:19 65.8 °F 59.8 °F 30.03 in Calm   2.0 mph 81% 0.00 in
00:24 65.5 °F 59.9 °F 30.03 in Calm     82% 0.00 in
00:29 65.1 °F 59.5 °F 30.03 in Calm     82% 0.00 in
00:34 64.8 °F 59.5 °F 30.04 in Calm     83% 0.00 in
00:39 64.5 °F 59.2 °F 30.03 in Calm     83% 0.00 in
00:44 64.3 °F 59.4 °F 30.04 in Calm     84% 0.00 in
00:49 64.2 °F 59.3 °F 30.03 in Calm     84% 0.00 in
00:54 63.9 °F 59.0 °F 30.03 in Calm     84% 0.00 in
00:59 63.6 °F 58.7 °F 30.03 in Calm     84% 0.00 in
01:04 63.5 °F 58.9 °F 30.03 in Calm     85% 0.00 in
01:09 63.2 °F 58.6 °F 30.03 in Calm     85% 0.00 in
01:14 63.2 °F 58.9 °F 30.03 in Calm     86% 0.00 in
01:19 63.1 °F 58.5 °F 30.03 in Calm     85% 0.00 in
01:24 63.1 °F 58.8 °F 30.03 in Calm     86% 0.00 in
01:29 62.9 °F 58.6 °F 30.03 in Calm     86% 0.00 in
01:34 62.9 °F 58.6 °F 30.03 in Calm     86% 0.00 in
01:39 62.7 °F 58.1 °F 30.03 in Calm     85% 0.00 in
01:44 62.5 °F 58.3 °F 30.03 in Calm     86% 0.00 in
01:49 62.5 °F 58.3 °F 30.03 in Calm     86% 0.00 in
01:54 62.5 °F 58.3 °F 30.03 in Calm     86% 0.00 in
01:59 62.5 °F 58.3 °F 30.02 in Calm     86% 0.00 in
02:04 62.4 °F 57.8 °F 30.02 in Calm     85% 0.00 in
02:09 62.2 °F 57.6 °F 30.02 in Calm     85% 0.00 in
02:14 62.0 °F 57.4 °F 30.03 in Calm     85% 0.00 in
02:19 61.7 °F 57.5 °F 30.02 in Calm     86% 0.00 in
02:24 61.6 °F 57.4 °F 30.02 in Calm     86% 0.00 in
02:29 61.6 °F 57.4 °F 30.02 in Calm     86% 0.00 in
02:34 61.6 °F 57.4 °F 30.02 in Calm     86% 0.00 in
02:39 61.7 °F 57.5 °F 30.02 in Calm     86% 0.00 in
02:44 61.7 °F 57.5 °F 30.02 in Calm     86% 0.00 in
02:49 61.7 °F 57.5 °F 30.02 in Calm     86% 0.00 in
02:54 61.6 °F 57.4 °F 30.02 in Calm     86% 0.00 in
02:59 61.3 °F 57.1 °F 30.02 in Calm     86% 0.00 in
03:04 61.1 °F 56.9 °F 30.02 in Calm     86% 0.00 in
03:09 61.0 °F 56.8 °F 30.02 in Calm     86% 0.00 in
03:14 60.8 °F 56.6 °F 30.01 in Calm     86% 0.00 in
03:19 60.7 °F 56.5 °F 30.01 in Calm     86% 0.00 in
03:24 60.5 °F 56.6 °F 30.01 in Calm     87% 0.00 in
03:29 60.4 °F 56.5 °F 30.01 in Calm     87% 0.00 in
03:34 60.3 °F 56.4 °F 30.01 in Calm     87% 0.00 in
03:39 60.1 °F 56.2 °F 30.01 in Calm     87% 0.00 in
03:44 59.9 °F 56.0 °F 30.01 in Calm     87% 0.00 in
03:49 59.8 °F 56.2 °F 30.01 in Calm     88% 0.00 in
03:54 59.7 °F 56.1 °F 30.01 in Calm     88% 0.00 in
03:59 59.8 °F 56.2 °F 30.01 in Calm     88% 0.00 in
04:04 59.7 °F 56.1 °F 30.01 in Calm     88% 0.00 in
04:09 59.5 °F 55.9 °F 30.00 in Calm     88% 0.00 in
04:14 59.5 °F 55.9 °F 30.01 in Calm     88% 0.00 in
04:19 59.6 °F 56.4 °F 30.00 in Calm     89% 0.00 in
04:24 59.4 °F 55.8 °F 30.00 in Calm     88% 0.00 in
04:29 59.2 °F 55.6 °F 30.00 in Calm     88% 0.00 in
04:34 59.1 °F 55.9 °F 30.00 in Calm     89% 0.00 in
04:39 59.2 °F 56.0 °F 30.00 in Calm     89% 0.00 in
04:44 59.3 °F 56.1 °F 30.00 in Calm     89% 0.00 in
04:49 59.3 °F 56.1 °F 30.01 in Calm     89% 0.00 in
04:54 59.3 °F 56.1 °F 30.01 in Calm     89% 0.00 in
04:59 59.2 °F 55.6 °F 30.01 in Calm     88% 0.00 in
05:04 59.1 °F 55.9 °F 30.00 in Calm     89% 0.00 in
05:09 59.0 °F 55.8 °F 30.00 in Calm     89% 0.00 in
05:14 59.0 °F 55.8 °F 30.00 in Calm     89% 0.00 in
05:19 59.1 °F 55.9 °F 30.00 in Calm     89% 0.00 in
05:24 59.1 °F 55.9 °F 30.00 in Calm     89% 0.00 in
05:29 59.2 °F 56.0 °F 30.00 in Calm     89% 0.00 in
05:34 59.3 °F 56.1 °F 30.00 in Calm     89% 0.00 in
05:39 59.4 °F 56.2 °F 30.00 in Calm     89% 0.00 in
05:44 59.6 °F 56.4 °F 30.00 in Calm     89% 0.00 in
05:49 59.7 °F 56.5 °F 30.00 in Calm     89% 0.00 in
05:54 59.8 °F 56.2 °F 30.00 in Calm     88% 0.00 in
05:59 59.8 °F 56.2 °F 30.00 in Calm     88% 0.00 in
06:04 59.9 °F 56.3 °F 30.00 in Calm     88% 0.00 in
06:09 60.0 °F 56.4 °F 30.00 in Calm     88% 0.00 in
06:14 60.1 °F 56.2 °F 30.00 in Calm     87% 0.00 in
06:19 60.2 °F 56.3 °F 30.00 in Calm     87% 0.00 in
06:24 60.2 °F 56.3 °F 30.00 in Calm     87% 0.00 in
06:29 60.4 °F 56.5 °F 30.00 in Calm     87% 0.00 in
06:34 60.5 °F 56.6 °F 30.00 in Calm     87% 0.00 in
06:39 60.6 °F 56.4 °F 30.00 in Calm     86% 0.00 in
06:44 60.7 °F 56.5 °F 30.00 in Calm     86% 0.00 in
06:49 60.8 °F 56.6 °F 30.00 in South 2.0 mph 3.0 mph 86% 0.00 in
06:54 60.9 °F 56.7 °F 30.00 in Calm   3.0 mph 86% 0.00 in
06:59 61.0 °F 56.8 °F 30.00 in Calm     86% 0.00 in
07:04 61.0 °F 56.5 °F 30.00 in Calm     85% 0.00 in
07:09 61.2 °F 56.7 °F 30.00 in Calm     85% 0.00 in
07:14 61.3 °F 56.8 °F 30.01 in Calm     85% 0.00 in
07:19 61.5 °F 56.9 °F 30.01 in Calm     85% 0.00 in
07:24 61.8 °F 57.2 °F 30.01 in Calm     85% 0.00 in
07:29 62.0 °F 57.1 °F 30.00 in Calm     84% 0.00 in
07:34 62.2 °F 57.3 °F 30.00 in Calm     84% 0.00 in
07:39 62.4 °F 57.5 °F 30.01 in Calm     84% 0.00 in
07:44 62.6 °F 57.4 °F 30.01 in Calm     83% 0.00 in
07:49 63.0 °F 58.1 °F 30.01 in Calm     84% 0.00 in
07:54 63.2 °F 58.3 °F 30.01 in Calm     84% 0.00 in
07:59 63.3 °F 58.4 °F 30.01 in Calm     84% 0.00 in
08:04 63.5 °F 58.9 °F 30.01 in Calm     85% 0.00 in
08:09 63.6 °F 58.7 °F 30.01 in Calm     84% 0.00 in
08:14 63.8 °F 59.2 °F 30.01 in Calm     85% 0.00 in
08:19 63.9 °F 59.0 °F 30.00 in Calm     84% 0.00 in
08:24 63.9 °F 59.3 °F 30.00 in Calm     85% 0.00 in
08:29 63.8 °F 59.2 °F 30.00 in Calm     85% 0.00 in
08:34 63.8 °F 59.2 °F 30.00 in Calm     85% 0.00 in
08:39 63.9 °F 59.3 °F 30.00 in Calm     85% 0.00 in
08:49 63.8 °F 58.9 °F 30.00 in Calm     84% 0.00 in
08:54 64.0 °F 59.4 °F 30.00 in Calm     85% 0.00 in
08:59 64.0 °F 59.4 °F 30.00 in Calm     85% 0.00 in
09:04 64.0 °F 59.4 °F 30.00 in Calm   3.0 mph 85% 0.00 in
09:09 64.2 °F 59.6 °F 30.00 in Calm   3.0 mph 85% 0.00 in
09:14 64.4 °F 59.8 °F 30.00 in Calm   2.0 mph 85% 0.00 in
09:19 64.7 °F 60.1 °F 30.00 in Calm     85% 0.00 in
09:24 65.0 °F 60.0 °F 29.99 in SE 1.0 mph 2.0 mph 84% 0.00 in
09:29 65.4 °F 60.4 °F 29.99 in SE 2.0 mph 3.0 mph 84% 0.00 in
09:34 65.5 °F 60.2 °F 29.99 in Calm   3.0 mph 83% 0.00 in
09:39 65.8 °F 60.5 °F 29.99 in Calm     83% 0.00 in
09:44 66.3 °F 60.6 °F 29.99 in Calm     82% 0.00 in
09:49 66.5 °F 60.5 °F 29.99 in Calm     81% 0.00 in
09:54 67.0 °F 61.0 °F 29.99 in Calm     81% 0.00 in
09:59 67.7 °F 61.0 °F 29.99 in Calm     79% 0.00 in
10:04 68.8 °F 61.7 °F 29.99 in Calm     78% 0.00 in
10:09 69.7 °F 62.2 °F 29.99 in Calm     77% 0.00 in
10:14 70.3 °F 62.4 °F 29.99 in Calm     76% 0.00 in
10:19 69.7 °F 61.8 °F 29.98 in Calm   2.0 mph 76% 0.00 in
10:24 70.1 °F 62.2 °F 29.98 in Calm   2.0 mph 76% 0.00 in
10:29 70.2 °F 61.5 °F 29.98 in Calm   3.0 mph 74% 0.00 in
10:34 70.6 °F 62.3 °F 29.99 in Calm   4.0 mph 75% 0.00 in
10:39 71.3 °F 62.6 °F 29.99 in Calm   4.0 mph 74% 0.00 in
10:44 71.2 °F 62.1 °F 29.99 in SW 1.0 mph 5.0 mph 73% 0.00 in
10:49 71.9 °F 63.2 °F 29.98 in SW 1.0 mph 5.0 mph 74% 0.00 in
10:54 72.7 °F 63.5 °F 29.98 in Calm   2.0 mph 73% 0.00 in
11:04 73.3 °F 62.9 °F 29.98 in Calm   4.0 mph 70% 0.00 in
11:09 73.5 °F 63.5 °F 29.98 in Calm   2.0 mph 71% 0.00 in
11:14 73.3 °F 62.9 °F 29.98 in SE 1.0 mph 2.0 mph 70% 0.00 in
11:19 73.4 °F 62.6 °F 29.98 in SSE 1.0 mph 4.0 mph 69% 0.00 in
11:24 73.0 °F 61.8 °F 29.98 in SE 1.0 mph 4.0 mph 68% 0.00 in
11:29 74.2 °F 63.4 °F 29.98 in East 1.0 mph 4.0 mph 69% 0.00 in
11:34 74.6 °F 61.2 °F 29.98 in NE 2.0 mph 4.0 mph 63% 0.00 in
11:39 74.8 °F 61.4 °F 29.98 in NNE 1.0 mph 4.0 mph 63% 0.00 in
11:44 75.2 °F 61.7 °F 29.98 in NW 1.0 mph 3.0 mph 63% 0.00 in
11:49 75.2 °F 61.3 °F 29.97 in NNE 2.0 mph 4.0 mph 62% 0.00 in
11:54 75.5 °F 63.8 °F 29.97 in NNE 2.0 mph 5.0 mph 67% 0.00 in
11:59 76.0 °F 63.8 °F 29.97 in East 1.0 mph 5.0 mph 66% 0.00 in
12:09 76.6 °F 60.7 °F 29.97 in NW 2.0 mph 6.0 mph 58% 0.00 in
12:14 76.7 °F 61.3 °F 29.97 in WNW 1.0 mph 4.0 mph 59% 0.00 in
12:19 76.4 °F 62.9 °F 29.96 in West 3.0 mph 3.0 mph 63% 0.00 in
12:24 76.7 °F 61.3 °F 29.96 in West 1.0 mph 3.0 mph 59% 0.00 in
12:29 75.9 °F 60.5 °F 29.96 in NW 2.0 mph 5.0 mph 59% 0.00 in
12:34 76.4 °F 63.3 °F 29.96 in NNW 2.0 mph 5.0 mph 64% 0.00 in
12:39 76.4 °F 59.5 °F 29.96 in NNW 2.0 mph 4.0 mph 56% 0.00 in
12:44 76.3 °F 60.9 °F 29.96 in NW 2.0 mph 5.0 mph 59% 0.00 in
12:49 76.0 °F 60.2 °F 29.96 in Calm   4.0 mph 58% 0.00 in
12:54 75.9 °F 59.6 °F 29.95 in WSW 3.0 mph 4.0 mph 57% 0.00 in
12:59 75.6 °F 59.8 °F 29.95 in West 3.0 mph 3.0 mph 58% 0.00 in
13:04 75.7 °F 60.8 °F 29.95 in Calm   4.0 mph 60% 0.00 in
13:09 76.0 °F 61.1 °F 29.95 in WNW 2.0 mph 5.0 mph 60% 0.00 in
13:14 75.9 °F 61.0 °F 29.95 in Calm   3.0 mph 60% 0.00 in
13:19 75.4 °F 58.6 °F 29.95 in Calm   3.0 mph 56% 0.00 in
13:24 75.5 °F 58.7 °F 29.94 in WNW 1.0 mph 3.0 mph 56% 0.00 in
13:29 75.6 °F 59.3 °F 29.94 in WNW 1.0 mph 3.0 mph 57% 0.00 in
13:34 75.8 °F 60.4 °F 29.94 in West 2.0 mph 6.0 mph 59% 0.00 in
13:39 75.8 °F 60.9 °F 29.94 in WNW 2.0 mph 6.0 mph 60% 0.00 in
13:44 75.2 °F 59.9 °F 29.94 in WNW 2.0 mph 5.0 mph 59% 0.00 in
13:49 75.4 °F 61.0 °F 29.94 in Calm   4.0 mph 61% 0.00 in
13:54 75.7 °F 60.8 °F 29.93 in West 2.0 mph 5.0 mph 60% 0.00 in
13:59 75.7 °F 60.4 °F 29.93 in WNW 2.0 mph 5.0 mph 59% 0.00 in
14:04 75.6 °F 61.2 °F 29.93 in WNW 2.0 mph 5.0 mph 61% 0.00 in
14:09 75.4 °F 61.9 °F 29.93 in NW 2.0 mph 6.0 mph 63% 0.00 in
14:14 75.3 °F 60.9 °F 29.92 in WNW 2.0 mph 5.0 mph 61% 0.00 in
14:19 75.8 °F 61.8 °F 29.92 in WSW 3.0 mph 6.0 mph 62% 0.00 in
14:24 76.4 °F 62.4 °F 29.92 in West 4.0 mph 6.0 mph 62% 0.00 in
14:29 76.4 °F 62.4 °F 29.92 in WNW 3.0 mph 8.0 mph 62% 0.00 in
14:34 75.8 °F 61.8 °F 29.92 in NNW 3.0 mph 8.0 mph 62% 0.00 in
14:39 75.9 °F 61.9 °F 29.92 in North 3.0 mph 6.0 mph 62% 0.00 in
14:44 75.9 °F 61.0 °F 29.92 in NNW 2.0 mph 6.0 mph 60% 0.00 in
14:49 75.7 °F 60.8 °F 29.92 in NW 2.0 mph 5.0 mph 60% 0.00 in
14:54 75.1 °F 64.2 °F 29.92 in North 2.0 mph 8.0 mph 69% 0.00 in
14:59 73.8 °F 64.6 °F 29.92 in NNW 4.0 mph 9.0 mph 73% 0.00 in
15:04 72.7 °F 63.9 °F 29.92 in North 4.0 mph 10.0 mph 74% 0.00 in
15:09 71.6 °F 63.6 °F 29.92 in NNW 5.0 mph 12.0 mph 76% 0.00 in
15:14 70.6 °F 63.4 °F 29.93 in North 5.0 mph 12.0 mph 78% 0.00 in
15:19 70.2 °F 63.4 °F 29.93 in ENE 3.0 mph 12.0 mph 79% 0.00 in
15:24 69.7 °F 63.3 °F 29.93 in NNE 2.0 mph 10.0 mph 80% 0.00 in
15:29 69.4 °F 63.0 °F 29.93 in NNE 1.0 mph 10.0 mph 80% 0.00 in
15:34 69.0 °F 62.9 °F 29.93 in North 4.0 mph 11.0 mph 81% 0.00 in
15:39 68.8 °F 62.7 °F 29.93 in North 4.0 mph 11.0 mph 81% 0.00 in
15:44 68.7 °F 63.0 °F 29.93 in North 3.0 mph 12.0 mph 82% 0.00 in
15:49 68.7 °F 63.0 °F 29.93 in NNW 5.0 mph 9.0 mph 82% 0.00 in
15:54 68.7 °F 63.0 °F 29.93 in North 1.0 mph 9.0 mph 82% 0.00 in
15:59 69.0 °F 63.3 °F 29.93 in North 7.0 mph 8.0 mph 82% 0.00 in
16:04 68.8 °F 62.7 °F 29.94 in North 4.0 mph 11.0 mph 81% 0.00 in
16:09 68.8 °F 63.1 °F 29.94 in North 5.0 mph 11.0 mph 82% 0.00 in
16:14 68.8 °F 63.1 °F 29.94 in North 4.0 mph 9.0 mph 82% 0.00 in
16:19 68.8 °F 62.7 °F 29.94 in NNW 4.0 mph 9.0 mph 81% 0.00 in
16:24 68.8 °F 62.7 °F 29.94 in NNW 3.0 mph 9.0 mph 81% 0.00 in
16:29 69.2 °F 62.8 °F 29.94 in North 2.0 mph 5.0 mph 80% 0.00 in
16:34 69.1 °F 61.9 °F 29.94 in NE 4.0 mph 6.0 mph 78% 0.00 in
16:39 69.2 °F 62.4 °F 29.94 in North 2.0 mph 6.0 mph 79% 0.00 in
16:44 68.9 °F 61.8 °F 29.94 in North 3.0 mph 6.0 mph 78% 0.00 in
16:49 68.6 °F 61.5 °F 29.95 in NE 3.0 mph 6.0 mph 78% 0.00 in
16:54 68.4 °F 61.6 °F 29.95 in NE 2.0 mph 5.0 mph 79% 0.00 in
16:59 68.6 °F 61.8 °F 29.94 in NNE 2.0 mph 4.0 mph 79% 0.00 in
17:04 68.6 °F 61.8 °F 29.94 in NNE 3.0 mph 7.0 mph 79% 0.00 in
17:09 68.3 °F 61.5 °F 29.94 in NE 3.0 mph 11.0 mph 79% 0.00 in
17:14 68.0 °F 61.2 °F 29.94 in NE 4.0 mph 11.0 mph 79% 0.00 in
17:19 67.7 °F 61.0 °F 29.94 in NE 5.0 mph 12.0 mph 79% 0.00 in
17:24 67.7 °F 61.3 °F 29.95 in ENE 5.0 mph 12.0 mph 80% 0.00 in
17:29 67.4 °F 61.0 °F 29.94 in ENE 4.0 mph 11.0 mph 80% 0.00 in
17:34 67.0 °F 61.0 °F 29.94 in NE 6.0 mph 13.0 mph 81% 0.00 in
17:39 66.8 °F 60.8 °F 29.94 in NE 6.0 mph 13.0 mph 81% 0.00 in
17:44 66.5 °F 60.5 °F 29.94 in NE 2.0 mph 10.0 mph 81% 0.00 in
17:49 66.4 °F 60.7 °F 29.94 in NE 9.0 mph 9.0 mph 82% 0.00 in
17:54 66.3 °F 60.6 °F 29.94 in NE 4.0 mph 8.0 mph 82% 0.00 in
17:59 66.4 °F 60.7 °F 29.93 in Calm   4.0 mph 82% 0.00 in
18:04 66.3 °F 60.6 °F 29.94 in NNE 1.0 mph 4.0 mph 82% 0.00 in
18:09 66.2 °F 60.5 °F 29.94 in NNW 1.0 mph 6.0 mph 82% 0.00 in
18:14 66.0 °F 60.3 °F 29.94 in North 1.0 mph 6.0 mph 82% 0.00 in
18:19 66.0 °F 60.3 °F 29.93 in NNE 2.0 mph 7.0 mph 82% 0.00 in
18:29 66.1 °F 60.8 °F 29.93 in ENE 3.0 mph 8.0 mph 83% 0.00 in
18:34 65.9 °F 60.6 °F 29.93 in NE 2.0 mph 8.0 mph 83% 0.00 in
18:39 66.1 °F 60.8 °F 29.93 in NE 3.0 mph 7.0 mph 83% 0.00 in
18:44 66.1 °F 60.8 °F 29.94 in ENE 4.0 mph 7.0 mph 83% 0.00 in
18:49 66.5 °F 61.2 °F 29.94 in Calm   5.0 mph 83% 0.00 in
18:54 66.5 °F 60.8 °F 29.94 in Calm     82% 0.00 in
18:59 66.5 °F 60.8 °F 29.94 in ENE 3.0 mph 4.0 mph 82% 0.00 in
19:04 66.3 °F 60.6 °F 29.94 in ENE 5.0 mph 8.0 mph 82% 0.00 in
19:09 66.3 °F 60.6 °F 29.93 in NE 2.0 mph 5.0 mph 82% 0.00 in
19:14 66.2 °F 60.5 °F 29.93 in ENE 2.0 mph 5.0 mph 82% 0.00 in
19:19 66.0 °F 60.3 °F 29.94 in ENE 1.0 mph 5.0 mph 82% 0.00 in
19:24 65.9 °F 60.6 °F 29.94 in ENE 1.0 mph 5.0 mph 83% 0.00 in
19:29 65.8 °F 60.5 °F 29.94 in Calm     83% 0.00 in
19:34 65.8 °F 60.5 °F 29.94 in Calm     83% 0.00 in
19:39 65.9 °F 60.2 °F 29.94 in Calm   4.0 mph 82% 0.00 in
19:44 65.7 °F 60.1 °F 29.94 in Calm   3.0 mph 82% 0.00 in
19:49 65.8 °F 60.2 °F 29.94 in ENE 1.0 mph 3.0 mph 82% 0.00 in
19:54 65.8 °F 59.8 °F 29.94 in Calm   3.0 mph 81% 0.00 in
19:59 65.8 °F 59.8 °F 29.95 in Calm     81% 0.00 in
20:04 65.7 °F 59.7 °F 29.95 in Calm     81% 0.00 in
20:09 65.6 °F 60.0 °F 29.95 in Calm     82% 0.00 in
20:14 65.6 °F 60.0 °F 29.95 in Calm     82% 0.00 in
20:19 65.5 °F 59.9 °F 29.95 in Calm     82% 0.00 in
20:24 65.5 °F 59.9 °F 29.95 in Calm     82% 0.00 in
20:29 65.4 °F 59.8 °F 29.95 in Calm   3.0 mph 82% 0.00 in
20:34 65.3 °F 60.0 °F 29.95 in NE 1.0 mph 4.0 mph 83% 0.00 in
20:39 65.2 °F 59.9 °F 29.96 in NE 1.0 mph 4.0 mph 83% 0.00 in
20:44 65.1 °F 59.8 °F 29.96 in Calm   1.0 mph 83% 0.00 in
20:49 65.1 °F 59.8 °F 29.96 in Calm     83% 0.00 in
20:54 65.1 °F 60.1 °F 29.96 in Calm   3.0 mph 84% 0.00 in
20:59 65.0 °F 60.0 °F 29.96 in Calm   4.0 mph 84% 0.00 in
21:04 64.9 °F 59.9 °F 29.97 in Calm     84% 0.00 in
21:09 64.8 °F 59.9 °F 29.97 in Calm     84% 0.00 in
21:14 64.7 °F 59.8 °F 29.97 in Calm     84% 0.00 in
21:19 64.5 °F 59.9 °F 29.97 in Calm     85% 0.00 in
21:24 64.5 °F 59.9 °F 29.97 in Calm     85% 0.00 in
21:29 64.4 °F 59.8 °F 29.97 in Calm     85% 0.00 in
21:34 64.2 °F 59.6 °F 29.97 in Calm     85% 0.00 in
21:39 64.1 °F 59.5 °F 29.96 in Calm     85% 0.00 in
21:44 63.9 °F 59.3 °F 29.96 in Calm     85% 0.00 in
21:49 63.7 °F 59.4 °F 29.97 in Calm     86% 0.00 in
21:54 63.6 °F 59.3 °F 29.97 in Calm     86% 0.00 in
21:59 63.4 °F 59.1 °F 29.97 in Calm     86% 0.00 in
22:04 63.4 °F 59.5 °F 29.97 in Calm     87% 0.00 in
22:09 63.3 °F 59.4 °F 29.97 in Calm     87% 0.00 in
22:14 63.4 °F 59.5 °F 29.97 in Calm     87% 0.00 in
22:19 63.4 °F 59.5 °F 29.97 in Calm     87% 0.00 in
22:24 63.3 °F 59.4 °F 29.97 in Calm     87% 0.00 in
22:29 63.4 °F 59.5 °F 29.97 in Calm     87% 0.00 in
22:34 63.5 °F 59.6 °F 29.97 in Calm     87% 0.00 in
22:39 63.6 °F 59.7 °F 29.97 in Calm     87% 0.00 in
22:44 63.5 °F 59.6 °F 29.97 in Calm     87% 0.00 in
22:49 63.4 °F 59.5 °F 29.97 in Calm     87% 0.00 in
22:54 63.3 °F 59.4 °F 29.97 in Calm     87% 0.00 in
22:59 63.1 °F 59.2 °F 29.97 in Calm     87% 0.00 in
23:04 62.9 °F 59.0 °F 29.97 in Calm     87% 0.00 in
23:09 62.6 °F 59.0 °F 29.97 in Calm     88% 0.00 in
23:24 62.2 °F 58.9 °F 29.97 in Calm     89% 0.00 in
23:29 62.1 °F 58.8 °F 29.97 in Calm     89% 0.00 in
23:34 62.0 °F 58.7 °F 29.97 in Calm     89% 0.00 in
23:39 61.9 °F 58.6 °F 29.97 in Calm     89% 0.00 in
23:44 61.9 °F 58.6 °F 29.97 in Calm     89% 0.00 in
23:49 61.6 °F 58.3 °F 29.97 in Calm     89% 0.00 in
23:54 61.5 °F 58.2 °F 29.97 in Calm     89% 0.00 in
23:59 61.4 °F 58.1 °F 29.97 in Calm     89% 0.00 in
Buffalo, New York, USA
Compliments of Weather Underground - 2.5 mb